Flight Track Log - Related Links

Times and Time Zones

All times are in EST time to prevent confusion due to time zone crossing. See the SWA3673 flight status page for this flight to view local times or setup timezone preferences in your user account.


Time Position Orientation Groundspeed Altitude Reporting Facility
EST Latitude Longitude Course Direction KTS MPH feet Rate Location/Type
Sat 07:37:21 PM 36.1667 -86.6167 102° East 200 230 3,900  Level Nashville TRACON
Sat 07:38:33 PM 36.1500 -86.5167 102° East 286 329 7,700 3,090 Climbing Nashville TRACON
Sat 07:39:35 PM 36.1369 -86.4389 102° East 276 318 10,800 3,268 Climbing Memphis Center
Sat 07:40:36 PM 36.1178 -86.3281 102° East 323 372 14,400 3,317 Climbing Memphis Center
Sat 07:41:38 PM 36.0964 -86.2108 103° East 343 395 17,600 2,829 Climbing Memphis Center
Sat 07:42:39 PM 36.0731 -86.0861 103° East 364 419 20,200 2,656 Climbing Memphis Center
Sat 07:43:40 PM 36.0631 -85.9542 95° East 380 437 23,000 2,607 Climbing Memphis Center
Sat 07:44:41 PM 36.0522 -85.8058 95° East 390 449 25,500 2,390 Climbing Memphis Center
Sat 07:45:43 PM 36.0431 -85.6644 95° East 408 470 27,900 2,475 Climbing Memphis Center
Sat 07:46:01 PM 36.0378 -85.6128 97° East 395 455 28,800 2,231 Climbing Atlanta Center
Sat 07:47:01 PM 36.0269 -85.4689 95° East 407 468 30,800 1,100 Climbing Atlanta Center
Sat 07:48:01 PM 36.0183 -85.3250 94° East 414 476 31,000 600 Climbing Atlanta Center
Sat 07:49:01 PM 36.0383 -85.1789 80° East 414 476 32,000 950 Climbing Atlanta Center
Sat 07:50:01 PM 36.0647 -85.0483 76° East 425 489 32,900 1,100 Climbing Atlanta Center
Sat 07:51:01 PM 36.0950 -84.8919 76° East 438 504 34,200 1,350 Climbing Atlanta Center
Sat 07:52:01 PM 36.1253 -84.7353 77° East 454 522 35,600 1,250 Climbing Atlanta Center
Sat 07:53:01 PM 36.1553 -84.5789 77° East 465 535 36,700 1,100 Climbing Atlanta Center
Sat 07:54:01 PM 36.1850 -84.4169 77° East 470 541 37,800 1,000 Climbing Atlanta Center
Sat 07:55:01 PM 36.2167 -84.2522 77° East 475 547 38,700 600 Climbing Atlanta Center
Sat 07:56:01 PM 36.2481 -84.0928 76° East 480 552 39,000 150 Climbing Atlanta Center
Sat 07:57:01 PM 36.2772 -83.9306 77° East 475 547 39,000  Level Atlanta Center
Sat 07:58:01 PM 36.3061 -83.7656 78° East 483 556 39,000  Level Atlanta Center
Sat 07:59:01 PM 36.3369 -83.6031 77° East 483 556 39,000  Level Atlanta Center
Sat 08:00:01 PM 36.3656 -83.4406 78° East 483 556 39,000  Level Atlanta Center
Sat 08:01:01 PM 36.3958 -83.2778 77° East 483 556 39,000 -200 Level Atlanta Center
Sat 08:02:01 PM 36.4261 -83.1125 77° East 483 556 38,600 -700 Descending Atlanta Center
Sat 08:03:01 PM 36.4581 -82.9442 77° East 491 565 37,600 -950 Descending Atlanta Center
Sat 08:04:01 PM 36.4856 -82.7811 78° East 486 559 36,700 -950 Descending Atlanta Center
Sat 08:05:01 PM 36.5153 -82.6206 77° East 486 559 35,700 -1,000 Descending Atlanta Center
Sat 08:06:01 PM 36.5422 -82.4572 78° East 486 559 34,700 -950 Descending Atlanta Center
Sat 08:07:01 PM 36.5694 -82.2992 78° East 475 547 33,800 -850 Descending Atlanta Center
Sat 08:08:01 PM 36.5964 -82.1433 78° East 463 533 33,000 -400 Descending Atlanta Center
Sat 08:09:01 PM 36.6231 -81.9875 78° East 463 533 33,000 -150 Level Atlanta Center
Sat 08:10:01 PM 36.6494 -81.8292 78° East 463 533 32,700 -650 Descending Atlanta Center
Sat 08:11:01 PM 36.6861 -81.6753 73° East 463 533 31,700 -1,100 Descending Atlanta Center
Sat 08:12:01 PM 36.7225 -81.5136 74° East 451 519 30,500 -1,050 Descending Atlanta Center
Sat 08:13:01 PM 36.7514 -81.3911 74° East 425 489 29,600 -750 Descending Atlanta Center
Sat 08:14:01 PM 36.7797 -81.2631 75° East 397 457 29,000 -178 Descending Atlanta Center
Sat 08:16:23 PM 36.8542 -80.9444 74° East 398 458 29,000 -177 Level Washington Center
Sat 08:17:24 PM 36.8808 -80.8139 76° East 392 451 28,400 -793 Descending Washington Center
Sat 08:18:24 PM 36.9117 -80.6808 74° East 392 451 27,400 -1,261 Descending Washington Center
Sat 08:19:23 PM 36.9400 -80.5528 74° East 392 451 25,900 -1,200 Descending Washington Center
Sat 08:20:24 PM 36.9708 -80.4117 75° East 387 445 25,000 -850 Descending Washington Center
Sat 08:21:23 PM 36.9697 -80.2817 91° East 375 432 24,200 -605 Descending Washington Center
Sat 08:22:23 PM 36.9200 -80.1617 117° Southeast 369 425 23,800 -595 Descending Washington Center
Sat 08:23:24 PM 36.8725 -80.0422 116° Southeast 374 430 23,000 -403 Descending Washington Center
Sat 08:24:22 PM 36.8242 -79.9381 120° Southeast 391 450 23,000  Level Washington Center
Sat 08:25:23 PM 36.7742 -79.8186 118° Southeast 391 450 23,000 -99 Level Washington Center
Sat 08:26:23 PM 36.7261 -79.6994 117° Southeast 391 450 22,800 -600 Descending Washington Center
Sat 08:27:23 PM 36.6758 -79.5828 118° Southeast 385 443 21,800 -1,091 Descending Washington Center
Sat 08:28:24 PM 36.6217 -79.4531 117° Southeast 385 443 20,600 -1,261 Descending Washington Center
Sat 08:29:22 PM 36.5711 -79.3369 118° Southeast 385 443 19,300 -1,673 Descending Washington Center
Sat 08:30:08 PM 36.5322 -79.2469 118° Southeast 373 429 17,700 -1,967 Descending Washington Center
Sat 08:30:23 PM 36.5225 -79.2233 117° Southeast 380 437 17,300 -1,967 Descending Washington Center
Sat 08:31:09 PM 36.4853 -79.1389 119° Southeast 357 411 15,700 -1,574 Descending Washington Center
Sat 08:31:24 PM 36.4856 -79.1364 82° East 375 432 15,700 -1,967 Level Washington Center
Sat 08:32:10 PM 36.4406 -79.0336 119° Southeast 348 400 13,700 -2,038 Descending Washington Center
Sat 08:33:10 PM 36.3869 -78.9383 125° Southeast 339 390 12,100 -1,500 Descending Washington Center
Sat 08:34:10 PM 36.2981 -78.9089 165° South 327 376 10,700 -992 Descending Washington Center
Sat 08:35:11 PM 36.2172 -78.8847 166° South 298 343 10,100 -927 Descending Washington Center
Sat 08:36:13 PM 36.1447 -78.8639 167° South 266 306 8,800 -976 Descending Washington Center
Sat 08:37:14 PM 36.0703 -78.8428 167° South 267 307 8,100 -956 Descending Washington Center
Sat 08:38:06 PM 36.0103 -78.8247 166° South 247 284 7,000 -1,200 Descending Washington Center
Sat 08:38:24 PM 35.9997 -78.8244 179° South 259 298 6,700 -1,548 Descending Washington Center
Sat 08:39:08 PM 35.9500 -78.8172 173° South 223 257 5,400 -1,700 Descending Washington Center
Sat 08:39:24 PM 35.9433 -78.8272 231° Southwest 241 277 5,000 -1,770 Descending Washington Center
Sat 08:40:09 PM 35.9006 -78.8639 215° Southwest 195 224 3,600 -1,554 Descending Washington Center
Sat 08:41:16 PM 35.8517 -78.8953 207° Southwest 192 221 2,100 -938 Descending Washington Center
Sat 08:42:17 PM 35.8281 -78.8431 119° Southeast 166 191 1,600 -700 Descending Washington Center
Sat 08:43:16 PM 35.8542 -78.8108 45° Northeast 136 157 700 -915 Descending Washington Center
Sat 08:45:00 PM 35.8667 -78.7833 90° East  Level FlightAware Approximate
Sat 08:52:00 PM 35.8776 -78.7875 90° East  Level Estimated
Sat 08:53:00 PM 35.8776 -78.7875 90° East  Level Estimated
Sat 08:54:00 PM 35.8776 -78.7875 90° East  Level Estimated
Sat 08:55:00 PM 35.8776 -78.7875 90° East  Level Estimated

Login

Don't have an account? Register now (free) for customized features, flight alerts, and more!